sensor_id;sensor_type;location;lat;lon;timestamp;pressure;altitude;pressure_sealevel;temperature;humidity
42847;BME280;28495;49.916;14.536;2022-07-23T00:05:33;96910.84;;;23.50;49.54
42847;BME280;28495;49.916;14.536;2022-07-23T00:10:56;96916.97;;;23.32;49.68
42847;BME280;28495;49.916;14.536;2022-07-23T00:16:17;96915.16;;;23.26;49.80
42847;BME280;28495;49.916;14.536;2022-07-23T00:21:38;96908.88;;;23.20;49.83
42847;BME280;28495;49.916;14.536;2022-07-23T00:26:59;96911.31;;;23.22;49.80
42847;BME280;28495;49.916;14.536;2022-07-23T00:32:19;96903.13;;;23.23;50.04
42847;BME280;28495;49.916;14.536;2022-07-23T00:38:00;96902.56;;;23.14;50.02
42847;BME280;28495;49.916;14.536;2022-07-23T00:43:23;96903.47;;;23.02;50.05
42847;BME280;28495;49.916;14.536;2022-07-23T00:48:44;96901.25;;;22.98;50.53
42847;BME280;28495;49.916;14.536;2022-07-23T00:54:05;96907.81;;;22.96;50.68
42847;BME280;28495;49.916;14.536;2022-07-23T00:59:25;96907.16;;;23.01;50.77
42847;BME280;28495;49.916;14.536;2022-07-23T01:04:46;96892.81;;;23.02;50.81
42847;BME280;28495;49.916;14.536;2022-07-23T01:10:07;96887.56;;;22.95;51.11
42847;BME280;28495;49.916;14.536;2022-07-23T01:15:48;96884.69;;;22.96;50.92
42847;BME280;28495;49.916;14.536;2022-07-23T01:21:11;96883.88;;;22.96;51.05
42847;BME280;28495;49.916;14.536;2022-07-23T01:26:36;96868.34;;;22.93;51.05
42847;BME280;28495;49.916;14.536;2022-07-23T01:31:57;96867.91;;;22.96;51.08
42847;BME280;28495;49.916;14.536;2022-07-23T01:37:18;96851.00;;;22.90;51.24
42847;BME280;28495;49.916;14.536;2022-07-23T01:42:40;96849.25;;;22.77;51.47
42847;BME280;28495;49.916;14.536;2022-07-23T01:48:03;96841.97;;;22.66;51.25
42847;BME280;28495;49.916;14.536;2022-07-23T01:53:32;96843.28;;;22.57;51.10
42847;BME280;28495;49.916;14.536;2022-07-23T01:58:52;96836.78;;;22.46;51.39
42847;BME280;28495;49.916;14.536;2022-07-23T02:04:15;96828.59;;;22.47;51.66
42847;BME280;28495;49.916;14.536;2022-07-23T02:09:35;96838.34;;;22.60;51.82
42847;BME280;28495;49.916;14.536;2022-07-23T02:14:56;96832.22;;;22.60;51.53
42847;BME280;28495;49.916;14.536;2022-07-23T02:20:18;96842.50;;;22.49;51.70
42847;BME280;28495;49.916;14.536;2022-07-23T02:25:39;96836.81;;;22.39;51.95
42847;BME280;28495;49.916;14.536;2022-07-23T02:31:00;96844.56;;;22.41;52.04
42847;BME280;28495;49.916;14.536;2022-07-23T02:36:21;96847.84;;;22.43;52.12
42847;BME280;28495;49.916;14.536;2022-07-23T02:41:42;96838.66;;;22.45;51.83
42847;BME280;28495;49.916;14.536;2022-07-23T02:47:03;96845.75;;;22.51;52.14
42847;BME280;28495;49.916;14.536;2022-07-23T02:52:26;96844.50;;;22.54;52.37
42847;BME280;28495;49.916;14.536;2022-07-23T02:57:46;96840.06;;;22.48;52.38
42847;BME280;28495;49.916;14.536;2022-07-23T03:03:07;96835.53;;;22.48;52.22
42847;BME280;28495;49.916;14.536;2022-07-23T03:08:28;96831.84;;;22.49;52.29
42847;BME280;28495;49.916;14.536;2022-07-23T03:13:49;96831.63;;;22.58;52.02
42847;BME280;28495;49.916;14.536;2022-07-23T03:19:10;96823.22;;;22.61;52.04
42847;BME280;28495;49.916;14.536;2022-07-23T03:24:31;96804.22;;;22.57;51.86
42847;BME280;28495;49.916;14.536;2022-07-23T03:30:10;96813.69;;;22.46;51.93
42847;BME280;28495;49.916;14.536;2022-07-23T03:35:31;96804.59;;;22.29;51.52
42847;BME280;28495;49.916;14.536;2022-07-23T03:41:08;96799.78;;;22.12;51.57
42847;BME280;28495;49.916;14.536;2022-07-23T03:46:28;96805.56;;;22.02;51.89
42847;BME280;28495;49.916;14.536;2022-07-23T03:51:49;96799.97;;;22.11;52.52
42847;BME280;28495;49.916;14.536;2022-07-23T03:57:10;96797.09;;;22.19;52.34
42847;BME280;28495;49.916;14.536;2022-07-23T04:02:31;96795.16;;;22.33;52.53
42847;BME280;28495;49.916;14.536;2022-07-23T04:07:52;96823.03;;;22.17;52.44
42847;BME280;28495;49.916;14.536;2022-07-23T04:13:13;96811.41;;;22.18;52.52
42847;BME280;28495;49.916;14.536;2022-07-23T04:18:34;96799.59;;;22.07;52.64
42847;BME280;28495;49.916;14.536;2022-07-23T04:24:01;96789.84;;;21.94;53.09
42847;BME280;28495;49.916;14.536;2022-07-23T04:29:23;96782.31;;;21.98;53.03
42847;BME280;28495;49.916;14.536;2022-07-23T04:34:44;96798.22;;;21.98;53.12
42847;BME280;28495;49.916;14.536;2022-07-23T04:40:06;96806.75;;;22.06;53.44
42847;BME280;28495;49.916;14.536;2022-07-23T04:45:29;96799.38;;;22.08;53.75
42847;BME280;28495;49.916;14.536;2022-07-23T04:50:50;96799.56;;;22.14;53.68
42847;BME280;28495;49.916;14.536;2022-07-23T04:56:15;96826.97;;;22.07;53.84
42847;BME280;28495;49.916;14.536;2022-07-23T05:01:36;96838.06;;;21.98;53.91
42847;BME280;28495;49.916;14.536;2022-07-23T05:06:58;96832.09;;;22.02;54.11
42847;BME280;28495;49.916;14.536;2022-07-23T05:12:19;96835.34;;;22.11;53.99
42847;BME280;28495;49.916;14.536;2022-07-23T05:17:41;96845.69;;;22.19;53.99
42847;BME280;28495;49.916;14.536;2022-07-23T05:23:06;96881.47;;;22.17;53.83
42847;BME280;28495;49.916;14.536;2022-07-23T05:28:28;96866.47;;;21.90;53.88
42847;BME280;28495;49.916;14.536;2022-07-23T05:33:48;96853.78;;;21.92;53.88
42847;BME280;28495;49.916;14.536;2022-07-23T05:39:10;96832.94;;;21.96;53.98
42847;BME280;28495;49.916;14.536;2022-07-23T05:44:30;96825.78;;;22.03;54.38
42847;BME280;28495;49.916;14.536;2022-07-23T05:49:54;96818.16;;;22.14;54.42
42847;BME280;28495;49.916;14.536;2022-07-23T05:55:30;96818.25;;;22.32;54.42
42847;BME280;28495;49.916;14.536;2022-07-23T06:00:51;96828.84;;;22.39;54.23
42847;BME280;28495;49.916;14.536;2022-07-23T06:06:12;96838.66;;;22.45;54.45
42847;BME280;28495;49.916;14.536;2022-07-23T06:11:34;96836.97;;;22.51;54.58
42847;BME280;28495;49.916;14.536;2022-07-23T06:16:55;96857.84;;;22.41;54.66
42847;BME280;28495;49.916;14.536;2022-07-23T06:22:16;96874.22;;;22.44;54.18
42847;BME280;28495;49.916;14.536;2022-07-23T06:27:37;96878.66;;;22.50;54.46
42847;BME280;28495;49.916;14.536;2022-07-23T06:32:57;96871.91;;;22.55;54.21
42847;BME280;28495;49.916;14.536;2022-07-23T06:38:18;96870.19;;;22.67;54.16
42847;BME280;28495;49.916;14.536;2022-07-23T06:43:40;96858.28;;;22.76;54.37
42847;BME280;28495;49.916;14.536;2022-07-23T06:49:02;96855.16;;;22.79;54.33
42847;BME280;28495;49.916;14.536;2022-07-23T06:54:26;96864.56;;;22.82;54.65
42847;BME280;28495;49.916;14.536;2022-07-23T06:59:47;96864.88;;;22.92;54.52
42847;BME280;28495;49.916;14.536;2022-07-23T07:05:14;96868.69;;;23.03;54.62
42847;BME280;28495;49.916;14.536;2022-07-23T07:10:35;96875.84;;;23.03;54.96
42847;BME280;28495;49.916;14.536;2022-07-23T07:15:56;96887.03;;;23.11;54.78
42847;BME280;28495;49.916;14.536;2022-07-23T07:21:16;96893.66;;;23.02;54.72
42847;BME280;28495;49.916;14.536;2022-07-23T07:26:37;96890.34;;;23.07;54.95
42847;BME280;28495;49.916;14.536;2022-07-23T07:31:59;96902.25;;;23.04;55.01
42847;BME280;28495;49.916;14.536;2022-07-23T07:37:20;96902.50;;;22.96;54.59
42847;BME280;28495;49.916;14.536;2022-07-23T07:42:48;96889.94;;;22.78;54.93
42847;BME280;28495;49.916;14.536;2022-07-23T07:48:09;96894.44;;;22.77;55.00
42847;BME280;28495;49.916;14.536;2022-07-23T07:53:30;96892.56;;;22.84;55.17
42847;BME280;28495;49.916;14.536;2022-07-23T07:58:50;96902.34;;;22.91;55.20
42847;BME280;28495;49.916;14.536;2022-07-23T08:04:11;96894.88;;;22.99;55.25
42847;BME280;28495;49.916;14.536;2022-07-23T08:09:32;96892.81;;;23.02;55.32
42847;BME280;28495;49.916;14.536;2022-07-23T08:14:53;96892.63;;;23.03;55.07
42847;BME280;28495;49.916;14.536;2022-07-23T08:20:15;96893.59;;;23.09;55.12
42847;BME280;28495;49.916;14.536;2022-07-23T08:25:39;96894.81;;;23.13;55.04
42847;BME280;28495;49.916;14.536;2022-07-23T08:31:00;96903.31;;;23.22;55.41
42847;BME280;28495;49.916;14.536;2022-07-23T08:36:21;96906.47;;;23.37;55.43
42847;BME280;28495;49.916;14.536;2022-07-23T08:41:42;96910.72;;;23.64;55.44
42847;BME280;28495;49.916;14.536;2022-07-23T08:47:03;96915.28;;;23.82;55.07
42847;BME280;28495;49.916;14.536;2022-07-23T08:52:25;96903.63;;;23.95;54.85
42847;BME280;28495;49.916;14.536;2022-07-23T08:57:50;96903.94;;;24.24;54.64
42847;BME280;28495;49.916;14.536;2022-07-23T09:03:17;96894.72;;;24.69;54.67
42847;BME280;28495;49.916;14.536;2022-07-23T09:08:43;96896.78;;;24.85;53.71
42847;BME280;28495;49.916;14.536;2022-07-23T09:14:05;96889.72;;;24.91;53.50
42847;BME280;28495;49.916;14.536;2022-07-23T09:19:27;96886.81;;;25.04;53.53
42847;BME280;28495;49.916;14.536;2022-07-23T09:30:32;96883.75;;;25.55;53.08
42847;BME280;28495;49.916;14.536;2022-07-23T09:35:55;96889.03;;;25.91;52.72
42847;BME280;28495;49.916;14.536;2022-07-23T09:41:17;96881.34;;;25.82;51.90
42847;BME280;28495;49.916;14.536;2022-07-23T09:46:38;96883.44;;;25.80;51.85
42847;BME280;28495;49.916;14.536;2022-07-23T09:52:02;96891.59;;;25.74;51.78
42847;BME280;28495;49.916;14.536;2022-07-23T09:57:23;96889.94;;;25.84;51.62
42847;BME280;28495;49.916;14.536;2022-07-23T10:02:46;96892.41;;;25.86;51.12
42847;BME280;28495;49.916;14.536;2022-07-23T10:08:20;96884.34;;;25.98;51.62
42847;BME280;28495;49.916;14.536;2022-07-23T10:14:02;96876.44;;;26.15;51.13
42847;BME280;28495;49.916;14.536;2022-07-23T10:19:43;96880.31;;;26.36;50.79
42847;BME280;28495;49.916;14.536;2022-07-23T10:31:20;96881.97;;;26.71;50.70
42847;BME280;28495;49.916;14.536;2022-07-23T10:37:14;96883.31;;;26.86;49.97
42847;BME280;28495;49.916;14.536;2022-07-23T10:42:44;96884.31;;;26.80;49.69
42847;BME280;28495;49.916;14.536;2022-07-23T10:59:12;96877.41;;;27.01;49.18
42847;BME280;28495;49.916;14.536;2022-07-23T11:04:50;96878.72;;;27.15;49.06
42847;BME280;28495;49.916;14.536;2022-07-23T11:10:35;96872.78;;;27.13;48.92
42847;BME280;28495;49.916;14.536;2022-07-23T11:26:52;96860.94;;;27.09;48.52
42847;BME280;28495;49.916;14.536;2022-07-23T11:32:22;96847.16;;;27.17;48.57
42847;BME280;28495;49.916;14.536;2022-07-23T11:37:45;96837.63;;;27.44;48.97
42847;BME280;28495;49.916;14.536;2022-07-23T11:43:08;96845.34;;;27.57;48.56
42847;BME280;28495;49.916;14.536;2022-07-23T11:48:30;96841.06;;;27.61;48.15
42847;BME280;28495;49.916;14.536;2022-07-23T11:54:05;96839.84;;;27.69;47.90
42847;BME280;28495;49.916;14.536;2022-07-23T11:59:29;96840.22;;;27.78;48.19
42847;BME280;28495;49.916;14.536;2022-07-23T12:04:52;96833.56;;;27.80;47.89
42847;BME280;28495;49.916;14.536;2022-07-23T12:10:57;96832.41;;;27.98;48.17
42847;BME280;28495;49.916;14.536;2022-07-23T12:15:58;96841.78;;;27.96;47.80
42847;BME280;28495;49.916;14.536;2022-07-23T12:21:19;96837.78;;;27.98;48.27
42847;BME280;28495;49.916;14.536;2022-07-23T12:27:12;96882.09;;;27.84;46.78
42847;BME280;28495;49.916;14.536;2022-07-23T12:32:34;96886.50;;;27.00;46.46
42847;BME280;28495;49.916;14.536;2022-07-23T12:38:00;96862.59;;;26.47;46.87
42847;BME280;28495;49.916;14.536;2022-07-23T12:43:22;96872.91;;;26.26;46.77
42847;BME280;28495;49.916;14.536;2022-07-23T12:54:10;96866.69;;;25.97;47.11
42847;BME280;28495;49.916;14.536;2022-07-23T12:59:31;96909.94;;;25.82;47.38
42847;BME280;28495;49.916;14.536;2022-07-23T13:04:52;96932.47;;;25.74;47.41
42847;BME280;28495;49.916;14.536;2022-07-23T13:10:13;96940.00;;;25.30;48.34
42847;BME280;28495;49.916;14.536;2022-07-23T13:15:34;96929.31;;;24.75;49.86
42847;BME280;28495;49.916;14.536;2022-07-23T13:20:56;96943.13;;;24.54;50.68
42847;BME280;28495;49.916;14.536;2022-07-23T13:26:17;96931.88;;;24.51;51.52
42847;BME280;28495;49.916;14.536;2022-07-23T13:31:38;96914.38;;;24.56;52.75
42847;BME280;28495;49.916;14.536;2022-07-23T13:36:59;96908.78;;;24.76;52.80
42847;BME280;28495;49.916;14.536;2022-07-23T13:42:20;96909.56;;;24.95;53.66
42847;BME280;28495;49.916;14.536;2022-07-23T13:47:43;96910.13;;;25.09;53.88
42847;BME280;28495;49.916;14.536;2022-07-23T13:53:06;96922.78;;;25.14;54.76
42847;BME280;28495;49.916;14.536;2022-07-23T13:58:30;96930.34;;;25.17;55.00
42847;BME280;28495;49.916;14.536;2022-07-23T14:03:52;96929.88;;;25.20;54.80
42847;BME280;28495;49.916;14.536;2022-07-23T14:09:13;96921.19;;;25.24;54.63
42847;BME280;28495;49.916;14.536;2022-07-23T14:14:35;96916.19;;;25.16;53.58
42847;BME280;28495;49.916;14.536;2022-07-23T14:19:57;96928.25;;;25.19;53.79
42847;BME280;28495;49.916;14.536;2022-07-23T14:25:19;96922.56;;;25.27;53.88
42847;BME280;28495;49.916;14.536;2022-07-23T14:30:40;96926.88;;;25.28;53.89
42847;BME280;28495;49.916;14.536;2022-07-23T14:36:04;96912.72;;;25.27;53.40
42847;BME280;28495;49.916;14.536;2022-07-23T14:41:25;96920.84;;;25.33;54.72
42847;BME280;28495;49.916;14.536;2022-07-23T14:46:48;96914.72;;;25.44;54.87
42847;BME280;28495;49.916;14.536;2022-07-23T14:52:09;96926.28;;;25.38;54.38
42847;BME280;28495;49.916;14.536;2022-07-23T14:57:30;96931.75;;;25.31;53.67
42847;BME280;28495;49.916;14.536;2022-07-23T15:02:52;96929.91;;;25.32;53.43
42847;BME280;28495;49.916;14.536;2022-07-23T15:08:15;96937.22;;;25.36;53.94
42847;BME280;28495;49.916;14.536;2022-07-23T15:13:42;96933.25;;;25.39;53.92
42847;BME280;28495;49.916;14.536;2022-07-23T15:19:04;96930.47;;;25.34;54.79
42847;BME280;28495;49.916;14.536;2022-07-23T15:24:26;96921.88;;;25.20;54.40
42847;BME280;28495;49.916;14.536;2022-07-23T15:29:47;96934.97;;;25.09;54.63
42847;BME280;28495;49.916;14.536;2022-07-23T15:35:08;96930.19;;;25.00;54.38
42847;BME280;28495;49.916;14.536;2022-07-23T15:40:29;96944.78;;;24.85;54.67
42847;BME280;28495;49.916;14.536;2022-07-23T15:45:51;96945.22;;;24.82;54.84
42847;BME280;28495;49.916;14.536;2022-07-23T15:51:12;96946.19;;;24.88;55.25
42847;BME280;28495;49.916;14.536;2022-07-23T15:56:33;96943.16;;;24.84;54.53
42847;BME280;28495;49.916;14.536;2022-07-23T16:01:54;96925.28;;;24.85;55.03
42847;BME280;28495;49.916;14.536;2022-07-23T16:07:19;96935.75;;;24.86;54.83
42847;BME280;28495;49.916;14.536;2022-07-23T16:12:40;96927.16;;;24.96;55.57
42847;BME280;28495;49.916;14.536;2022-07-23T16:18:01;96925.91;;;24.99;55.71
42847;BME280;28495;49.916;14.536;2022-07-23T16:23:22;96909.94;;;25.10;55.40
42847;BME280;28495;49.916;14.536;2022-07-23T16:28:43;96911.53;;;25.11;55.38
42847;BME280;28495;49.916;14.536;2022-07-23T16:34:04;96915.94;;;25.06;55.10
42847;BME280;28495;49.916;14.536;2022-07-23T16:39:25;96905.75;;;25.03;55.35
42847;BME280;28495;49.916;14.536;2022-07-23T16:44:46;96916.03;;;24.99;55.39
42847;BME280;28495;49.916;14.536;2022-07-23T16:50:07;96925.19;;;24.91;55.06
42847;BME280;28495;49.916;14.536;2022-07-23T16:55:28;96933.09;;;24.98;55.25
42847;BME280;28495;49.916;14.536;2022-07-23T17:00:49;96947.13;;;24.93;55.13
42847;BME280;28495;49.916;14.536;2022-07-23T17:06:10;96951.75;;;24.86;55.05
42847;BME280;28495;49.916;14.536;2022-07-23T17:11:31;96959.38;;;24.83;55.25
42847;BME280;28495;49.916;14.536;2022-07-23T17:16:52;96965.97;;;24.80;55.30
42847;BME280;28495;49.916;14.536;2022-07-23T17:22:13;96966.44;;;24.77;54.80
42847;BME280;28495;49.916;14.536;2022-07-23T17:27:34;96973.72;;;24.70;54.84
42847;BME280;28495;49.916;14.536;2022-07-23T17:32:55;96964.50;;;24.65;54.72
42847;BME280;28495;49.916;14.536;2022-07-23T17:38:16;96971.09;;;24.63;55.10
42847;BME280;28495;49.916;14.536;2022-07-23T17:43:37;96995.94;;;24.45;54.64
42847;BME280;28495;49.916;14.536;2022-07-23T17:48:58;97004.22;;;24.18;54.27
42847;BME280;28495;49.916;14.536;2022-07-23T17:54:21;96991.72;;;24.00;54.51
42847;BME280;28495;49.916;14.536;2022-07-23T17:59:42;96999.81;;;23.86;54.76
42847;BME280;28495;49.916;14.536;2022-07-23T18:05:03;97010.69;;;23.85;54.81
42847;BME280;28495;49.916;14.536;2022-07-23T18:10:23;97027.00;;;23.70;54.85
42847;BME280;28495;49.916;14.536;2022-07-23T18:15:44;97046.34;;;23.58;54.87
42847;BME280;28495;49.916;14.536;2022-07-23T18:21:05;97058.81;;;23.33;55.46
42847;BME280;28495;49.916;14.536;2022-07-23T18:26:26;97068.97;;;23.04;55.83
42847;BME280;28495;49.916;14.536;2022-07-23T18:31:47;97063.25;;;23.00;56.50
42847;BME280;28495;49.916;14.536;2022-07-23T18:37:08;97083.34;;;22.89;56.71
42847;BME280;28495;49.916;14.536;2022-07-23T18:42:45;97079.69;;;22.90;56.93
42847;BME280;28495;49.916;14.536;2022-07-23T18:48:06;97063.31;;;22.93;57.26
42847;BME280;28495;49.916;14.536;2022-07-23T18:53:27;97084.19;;;22.90;57.33
42847;BME280;28495;49.916;14.536;2022-07-23T18:58:48;97093.66;;;22.72;57.49
42847;BME280;28495;49.916;14.536;2022-07-23T19:04:10;97106.56;;;22.68;57.84
42847;BME280;28495;49.916;14.536;2022-07-23T19:09:31;97116.75;;;22.72;57.95
42847;BME280;28495;49.916;14.536;2022-07-23T19:14:53;97119.00;;;22.75;57.89
42847;BME280;28495;49.916;14.536;2022-07-23T19:20:14;97112.69;;;22.69;57.98
42847;BME280;28495;49.916;14.536;2022-07-23T19:25:35;97105.38;;;22.58;58.30
42847;BME280;28495;49.916;14.536;2022-07-23T19:30:56;97107.44;;;22.49;58.52
42847;BME280;28495;49.916;14.536;2022-07-23T19:36:18;97112.34;;;22.38;58.32
42847;BME280;28495;49.916;14.536;2022-07-23T19:41:39;97121.13;;;22.26;58.56
42847;BME280;28495;49.916;14.536;2022-07-23T19:47:00;97132.78;;;22.18;58.95
42847;BME280;28495;49.916;14.536;2022-07-23T19:52:21;97134.81;;;22.16;58.85
42847;BME280;28495;49.916;14.536;2022-07-23T19:57:43;97143.00;;;22.14;59.24
42847;BME280;28495;49.916;14.536;2022-07-23T20:03:05;97148.50;;;22.13;59.10
42847;BME280;28495;49.916;14.536;2022-07-23T20:08:26;97152.19;;;21.98;59.27
42847;BME280;28495;49.916;14.536;2022-07-23T20:13:47;97155.84;;;22.04;59.45
42847;BME280;28495;49.916;14.536;2022-07-23T20:19:07;97165.69;;;22.17;59.48
42847;BME280;28495;49.916;14.536;2022-07-23T20:24:28;97172.41;;;22.26;59.68
42847;BME280;28495;49.916;14.536;2022-07-23T20:29:49;97176.50;;;22.35;59.61
42847;BME280;28495;49.916;14.536;2022-07-23T20:35:09;97184.25;;;22.37;59.80
42847;BME280;28495;49.916;14.536;2022-07-23T20:40:30;97183.03;;;22.39;59.61
42847;BME280;28495;49.916;14.536;2022-07-23T20:45:51;97192.84;;;22.39;59.69
42847;BME280;28495;49.916;14.536;2022-07-23T20:51:13;97190.41;;;22.37;59.83
42847;BME280;28495;49.916;14.536;2022-07-23T20:56:34;97198.16;;;22.32;59.50
42847;BME280;28495;49.916;14.536;2022-07-23T21:01:55;97204.28;;;22.26;59.64
42847;BME280;28495;49.916;14.536;2022-07-23T21:07:16;97204.69;;;22.16;59.40
42847;BME280;28495;49.916;14.536;2022-07-23T21:12:38;97217.38;;;22.07;59.35
42847;BME280;28495;49.916;14.536;2022-07-23T21:17:59;97223.28;;;22.03;59.22
42847;BME280;28495;49.916;14.536;2022-07-23T21:23:20;97224.69;;;21.85;59.34
42847;BME280;28495;49.916;14.536;2022-07-23T21:28:41;97237.13;;;21.78;59.32
42847;BME280;28495;49.916;14.536;2022-07-23T21:34:03;97225.41;;;21.59;59.55
42847;BME280;28495;49.916;14.536;2022-07-23T21:39:24;97226.81;;;21.55;59.36
42847;BME280;28495;49.916;14.536;2022-07-23T21:44:44;97229.84;;;21.52;59.24
42847;BME280;28495;49.916;14.536;2022-07-23T21:50:05;97232.47;;;21.38;59.31
42847;BME280;28495;49.916;14.536;2022-07-23T21:55:27;97237.75;;;21.31;59.46
42847;BME280;28495;49.916;14.536;2022-07-23T22:00:48;97240.38;;;21.25;59.22
42847;BME280;28495;49.916;14.536;2022-07-23T22:06:10;97244.00;;;21.17;59.75
42847;BME280;28495;49.916;14.536;2022-07-23T22:11:31;97248.25;;;21.11;59.84
42847;BME280;28495;49.916;14.536;2022-07-23T22:16:52;97243.16;;;21.10;59.98
42847;BME280;28495;49.916;14.536;2022-07-23T22:22:13;97256.81;;;21.07;59.47
42847;BME280;28495;49.916;14.536;2022-07-23T22:27:33;97252.28;;;21.00;59.78
42847;BME280;28495;49.916;14.536;2022-07-23T22:32:56;97258.78;;;20.98;59.78
42847;BME280;28495;49.916;14.536;2022-07-23T22:38:17;97261.03;;;20.94;59.74
42847;BME280;28495;49.916;14.536;2022-07-23T22:43:38;97264.44;;;20.88;59.64
42847;BME280;28495;49.916;14.536;2022-07-23T22:48:58;97258.09;;;20.82;59.70
42847;BME280;28495;49.916;14.536;2022-07-23T22:54:20;97266.97;;;20.75;59.46
42847;BME280;28495;49.916;14.536;2022-07-23T22:59:41;97267.94;;;20.67;59.57
42847;BME280;28495;49.916;14.536;2022-07-23T23:05:02;97271.34;;;20.61;59.48
42847;BME280;28495;49.916;14.536;2022-07-23T23:10:23;97266.13;;;20.74;59.69
42847;BME280;28495;49.916;14.536;2022-07-23T23:15:44;97284.00;;;20.87;59.92
42847;BME280;28495;49.916;14.536;2022-07-23T23:21:05;97281.97;;;20.89;59.19
42847;BME280;28495;49.916;14.536;2022-07-23T23:26:26;97283.72;;;20.75;59.04
42847;BME280;28495;49.916;14.536;2022-07-23T23:31:46;97277.09;;;20.64;58.39
42847;BME280;28495;49.916;14.536;2022-07-23T23:37:07;97278.44;;;20.53;58.59
42847;BME280;28495;49.916;14.536;2022-07-23T23:42:28;97278.53;;;20.45;58.92
42847;BME280;28495;49.916;14.536;2022-07-23T23:47:48;97283.56;;;20.33;58.61
42847;BME280;28495;49.916;14.536;2022-07-23T23:53:09;97280.63;;;20.50;59.08
42847;BME280;28495;49.916;14.536;2022-07-23T23:58:30;97293.38;;;20.61;59.01
